^^
Station Historical Data
Daily Summary for July 13, 2018 Units:  English    Metric   Both
« Previous Day
Next Day »
Daily Weekly Monthly Yearly Custom
  High: Low: Average:
Temperature: TemperatureF °F 66.6 °F 72.7 °F
Dew Point: DewpointF °F 66.0 °F 69.9 °F
Humidity: Humidity% 70% 91%
Wind Speed: WindSpeedMPHmph 0.0mph 1.1mph
Wind Gust: WindSpeedGustMPHmph - -
Wind- - SSW
Pressure: PressureIn in 29.98 in -
Precipitation: 0.00 in    
Historical Graphs
 
 
Tabular Data for July 13, 2018
Time Temperature Dew Point Pressure Wind Wind Speed Wind Gust Humidity Rainfall Rate (Hourly) solar Conditions
TemperatureF °F DewpointF °F PressureIn in Calm     Humidity% HourlyPrecipIn in SolarRadiationWatts/m^2 W/m2 Conditions
00:04 69.8 °F 69.2 °F 30.02 in Calm     98% 0.00 in 0.00 W/m2 RA
00:09 69.8 °F 69.2 °F 30.02 in Calm     98% 0.00 in 0.00 W/m2 RA
00:14 69.6 °F 69.0 °F 30.02 in Calm     98% 0.00 in 0.00 W/m2 RA
00:19 69.6 °F 69.0 °F 30.02 in Calm     98% 0.00 in 0.00 W/m2 -RA
00:24 69.6 °F 69.0 °F 30.01 in Calm     98% 0.00 in 0.00 W/m2 -RA
00:29 69.6 °F 69.0 °F 30.02 in Calm     98% 0.00 in 0.00 W/m2 -RA
00:34 69.4 °F 68.9 °F 30.02 in Calm     98% 0.00 in 0.00 W/m2 -RA
00:39 69.6 °F 69.0 °F 30.04 in WSW 3.5 mph 3.4 mph 98% 0.00 in 0.00 W/m2 -RA
00:44 69.6 °F 69.0 °F 30.04 in NNE 1.2 mph 0.2 mph 98% 0.00 in 0.00 W/m2 -RA
00:49 69.6 °F 69.0 °F 30.03 in SSW 2.3 mph 0.7 mph 98% 0.00 in 0.00 W/m2 -RA
00:54 69.8 °F 69.2 °F 30.02 in Calm   0.2 mph 98% 0.00 in 0.00 W/m2 -RA
00:59 69.8 °F 69.2 °F 30.02 in Calm     98% 0.00 in 0.00 W/m2 -RA
01:04 69.8 °F 69.2 °F 30.02 in Calm     98% 0.00 in 0.00 W/m2 -RA
01:09 69.6 °F 69.0 °F 30.01 in Calm     98% 0.00 in 0.00 W/m2 -RA
01:14 69.6 °F 69.0 °F 30.00 in Calm     98% 0.00 in 0.00 W/m2 -RA
01:19 69.4 °F 68.9 °F 30.00 in Calm     98% 0.00 in 0.00 W/m2 -RA
01:24 69.3 °F 68.7 °F 30.00 in ENE 2.3 mph 1.3 mph 98% 0.00 in 0.00 W/m2 -RA
01:29 69.3 °F 68.7 °F 29.99 in ESE 1.2 mph 0.2 mph 98% 0.00 in 0.00 W/m2 -RA
01:34 69.1 °F 68.5 °F 29.99 in East 0.9 mph 0.2 mph 98% 0.00 in 0.00 W/m2 -RA
01:39 69.1 °F 68.5 °F 29.99 in Calm   0.2 mph 98% 0.00 in 0.00 W/m2 -RA
01:44 69.1 °F 68.5 °F 29.98 in North 1.2 mph 0.4 mph 98% 0.00 in 0.00 W/m2 -RA
01:49 69.1 °F 68.5 °F 29.98 in North 1.2 mph 0.2 mph 98% 0.00 in 0.00 W/m2 -RA
01:54 69.1 °F 68.5 °F 29.98 in Calm     98% 0.00 in 0.00 W/m2 -RA
01:59 68.9 °F 68.3 °F 29.98 in ESE 2.3 mph 0.4 mph 98% 0.00 in 0.00 W/m2 -RA
02:04 68.9 °F 68.3 °F 29.98 in Calm     98% 0.00 in 0.00 W/m2 -RA
02:09 68.9 °F 68.3 °F 29.99 in NW 1.2 mph 0.2 mph 98% 0.00 in 0.00 W/m2 -RA
02:14 68.9 °F 68.3 °F 29.99 in Calm     98% 0.00 in 0.00 W/m2 -RA
02:19 68.5 °F 68.0 °F 30.00 in WSW 1.2 mph   98% 0.00 in 0.00 W/m2 -RA
02:24 68.5 °F 68.0 °F 30.01 in West 2.3 mph 0.7 mph 98% 0.00 in 0.00 W/m2 -RA
02:29 68.5 °F 68.0 °F 30.02 in Calm     98% 0.00 in 0.00 W/m2 -RA
02:34 68.5 °F 68.0 °F 30.02 in Calm   0.2 mph 98% 0.00 in 0.00 W/m2 BKN
02:39 68.5 °F 68.0 °F 30.00 in Calm     98% 0.00 in 0.00 W/m2 BKN
02:44 68.5 °F 68.0 °F 30.04 in NNE 2.3 mph 0.7 mph 98% 0.00 in 0.00 W/m2 BKN
02:49 68.4 °F 67.8 °F 30.03 in Calm   0.2 mph 98% 0.00 in 0.00 W/m2 -RA
02:54 68.4 °F 67.8 °F 30.04 in Calm     98% 0.00 in 0.00 W/m2 -RA
02:59 68.4 °F 67.8 °F 30.05 in NW 2.3 mph 0.7 mph 98% 0.00 in 0.00 W/m2 -RA
03:04 68.4 °F 67.8 °F 30.05 in Calm   0.2 mph 98% 0.00 in 0.00 W/m2 SCT
03:09 68.4 °F 67.8 °F 30.05 in Calm     98% 0.00 in 0.00 W/m2 SCT
03:14 68.4 °F 67.8 °F 30.04 in Calm     98% 0.00 in 0.00 W/m2 SCT
03:19 68.4 °F 67.8 °F 30.04 in Calm     98% 0.00 in 0.00 W/m2 SCT
03:24 68.4 °F 67.8 °F 30.04 in Calm     98% 0.00 in 0.00 W/m2 SCT
03:29 68.4 °F 67.8 °F 30.05 in Calm     98% 0.00 in 0.00 W/m2 SCT
03:34 68.4 °F 67.8 °F 30.05 in Calm   0.2 mph 98% 0.00 in 0.00 W/m2 SCT
03:39 68.2 °F 67.6 °F 30.06 in Calm     98% 0.00 in 0.00 W/m2 SCT
03:44 68.0 °F 67.4 °F 30.05 in Calm     98% 0.00 in 0.00 W/m2 SCT
03:49 68.0 °F 67.4 °F 30.05 in Calm     98% 0.00 in 0.00 W/m2 SCT
03:54 68.0 °F 67.4 °F 30.05 in Calm     98% 0.00 in 0.00 W/m2 SCT
03:59 68.0 °F 67.4 °F 30.05 in Calm     98% 0.00 in 0.00 W/m2 SCT
04:04 67.8 °F 67.2 °F 30.04 in Calm     98% 0.00 in 0.00 W/m2 CLR
04:09 67.8 °F 67.2 °F 30.03 in Calm     98% 0.00 in 0.00 W/m2 CLR
04:14 67.8 °F 67.2 °F 30.02 in Calm     98% 0.00 in 0.00 W/m2 CLR
04:19 67.6 °F 67.1 °F 30.03 in Calm     98% 0.00 in 0.00 W/m2 CLR
04:24 67.6 °F 67.1 °F 30.03 in Calm     98% 0.00 in 0.00 W/m2 CLR
04:29 67.5 °F 66.9 °F 30.02 in Calm     98% 0.00 in 0.00 W/m2 CLR
04:34 67.3 °F 66.7 °F 30.02 in Calm     98% 0.00 in 0.00 W/m2 CLR
04:39 67.1 °F 66.5 °F 30.03 in Calm     98% 0.00 in 0.00 W/m2 CLR
04:44 67.1 °F 66.5 °F 30.02 in Calm     98% 0.00 in 0.00 W/m2 CLR
04:49 67.1 °F 66.5 °F 30.02 in Calm     98% 0.00 in 0.00 W/m2 CLR
04:54 67.1 °F 66.5 °F 30.02 in Calm     98% 0.00 in 0.00 W/m2 CLR
04:59 67.1 °F 66.5 °F 30.02 in Calm     98% 0.00 in 0.00 W/m2 CLR
05:04 67.1 °F 66.5 °F 30.02 in Calm     98% 0.00 in 0.00 W/m2 CLR
05:09 67.1 °F 66.5 °F 30.02 in Calm     98% 0.00 in 0.00 W/m2 CLR
05:14 67.1 °F 66.5 °F 30.03 in Calm     98% 0.00 in 0.00 W/m2 CLR
05:19 67.1 °F 66.5 °F 30.03 in Calm     98% 0.00 in 0.00 W/m2 CLR
05:24 66.9 °F 66.3 °F 30.03 in Calm     98% 0.00 in 0.00 W/m2 CLR
05:29 66.9 °F 66.3 °F 30.03 in Calm     98% 0.00 in 0.00 W/m2 CLR
05:34 66.9 °F 66.3 °F 30.03 in Calm     98% 0.00 in 0.00 W/m2 CLR
05:39 66.9 °F 66.3 °F 30.03 in Calm     98% 0.00 in 0.00 W/m2 CLR
05:44 66.9 °F 66.3 °F 30.03 in Calm     98% 0.00 in 0.00 W/m2 CLR
05:49 66.9 °F 66.3 °F 30.04 in Calm     98% 0.00 in 0.00 W/m2 CLR
05:54 66.6 °F 66.0 °F 30.04 in Calm     98% 0.00 in 0.00 W/m2 CLR
05:59 66.6 °F 66.0 °F 30.04 in Calm     98% 0.00 in 0.00 W/m2 CLR
06:04 66.6 °F 66.0 °F 30.05 in Calm     98% 0.00 in 0.00 W/m2 BKN
06:09 66.6 °F 66.0 °F 30.05 in Calm     98% 0.00 in 0.00 W/m2 BKN
06:14 66.6 °F 66.0 °F 30.06 in Calm     98% 0.00 in 0.00 W/m2 BKN
06:19 66.6 °F 66.0 °F 30.06 in Calm     98% 0.00 in 152.20 W/m2 BKN
06:24 66.6 °F 66.0 °F 30.06 in Calm     98% 0.00 in 174.40 W/m2 BKN
06:29 66.9 °F 66.3 °F 30.08 in Calm   0.7 mph 98% 0.00 in 195.60 W/m2 BKN
06:34 66.9 °F 66.3 °F 30.06 in Calm   0.2 mph 98% 0.00 in 219.90 W/m2 BKN
06:39 67.1 °F 66.5 °F 30.08 in Calm     98% 0.00 in 239.10 W/m2 BKN
06:44 67.3 °F 66.7 °F 30.08 in Calm     98% 0.00 in 250.20 W/m2 BKN
06:49 67.5 °F 66.9 °F 30.08 in Calm     98% 0.00 in 259.30 W/m2 OVC
06:54 67.5 °F 66.9 °F 30.08 in Calm     98% 0.00 in 289.60 W/m2 OVC
06:59 67.5 °F 66.9 °F 30.08 in Calm     98% 0.00 in 295.60 W/m2 OVC
07:04 67.5 °F 66.9 °F 30.07 in Calm     98% 0.00 in 295.60 W/m2 OVC
07:09 67.6 °F 67.1 °F 30.09 in Calm     98% 0.00 in 35.00 W/m2 OVC
07:14 67.8 °F 67.2 °F 30.08 in Calm     98% 0.00 in 303.70 W/m2 OVC
07:19 68.0 °F 67.4 °F 30.09 in Calm     98% 0.00 in 303.70 W/m2 -RA
07:24 68.0 °F 67.4 °F 30.09 in Calm     98% 0.00 in 298.70 W/m2 -RA
07:29 68.2 °F 67.6 °F 30.09 in South 1.2 mph 0.2 mph 98% 0.00 in 302.70 W/m2 -RA
07:34 68.4 °F 67.8 °F 30.08 in Calm     98% 0.00 in 306.70 W/m2 -RA
07:39 68.4 °F 67.8 °F 30.09 in SW 2.3 mph 0.9 mph 98% 0.00 in 318.80 W/m2 -RA
07:44 68.4 °F 67.8 °F 30.09 in South 2.3 mph 0.7 mph 98% 0.00 in 292.60 W/m2 -RA
07:49 68.4 °F 67.8 °F 30.09 in South 1.2 mph 0.2 mph 98% 0.00 in 284.50 W/m2 -RA
07:54 68.9 °F 68.3 °F 30.09 in Calm   0.2 mph 98% 0.00 in 301.70 W/m2 -RA
07:59 68.9 °F 68.3 °F 30.10 in West 2.0 mph 0.9 mph 98% 0.00 in 332.00 W/m2 -RA
08:04 69.3 °F 68.7 °F 30.10 in Calm   0.7 mph 98% 0.00 in 357.20 W/m2 -RA
08:09 69.8 °F 69.2 °F 30.10 in SSW 1.2 mph 0.9 mph 98% 0.00 in 356.20 W/m2 -RA
08:14 70.0 °F 69.4 °F 30.09 in South 2.3 mph 0.9 mph 98% 0.00 in 351.20 W/m2 -RA
08:19 70.2 °F 69.6 °F 30.10 in SSE 1.2 mph 0.4 mph 98% 0.00 in 345.10 W/m2 BKN
08:24 70.3 °F 69.7 °F 30.10 in WSW 2.3 mph 0.7 mph 98% 0.00 in 328.90 W/m2 BKN
08:29 70.5 °F 69.9 °F 30.09 in SE 1.2 mph 0.2 mph 98% 0.00 in 328.90 W/m2 BKN
08:34 70.5 °F 69.9 °F 30.08 in Calm     98% 0.00 in 327.90 W/m2 BKN
08:39 70.5 °F 69.9 °F 30.08 in Calm     98% 0.00 in 327.90 W/m2 BKN
08:44 70.9 °F 70.3 °F 30.08 in Calm     98% 0.00 in 333.00 W/m2 BKN
08:49 71.1 °F 70.5 °F 30.07 in Calm     98% 0.00 in 351.20 W/m2 BKN
08:54 71.4 °F 70.8 °F 30.07 in Calm     98% 0.00 in 351.20 W/m2 BKN
08:59 71.4 °F 70.8 °F 30.08 in SW 1.2 mph 0.2 mph 98% 0.00 in 367.30 W/m2 BKN
09:04 71.4 °F 70.8 °F 30.09 in SSW 1.2 mph 0.4 mph 98% 0.00 in 367.30 W/m2 -RA
09:09 71.4 °F 70.8 °F 30.09 in SSE 1.2 mph 0.4 mph 98% 0.00 in 378.40 W/m2 -RA
09:14 71.8 °F 71.2 °F 30.08 in Calm     98% 0.00 in 378.40 W/m2 -RA
09:19 71.8 °F 71.2 °F 30.09 in Calm     98% 0.00 in 370.40 W/m2 -RA
09:24 72.5 °F 71.3 °F 30.08 in South 2.3 mph 0.4 mph 96% 0.00 in 370.40 W/m2 -RA
09:29 72.7 °F 71.5 °F 30.08 in ESE 2.0 mph 0.4 mph 96% 0.00 in 380.50 W/m2 -RA
09:34 72.7 °F 71.5 °F 30.07 in SSW 1.2 mph 0.2 mph 96% 0.00 in 395.60 W/m2 -RA
09:39 73.0 °F 71.5 °F 30.07 in Calm   0.4 mph 95% 0.00 in 378.40 W/m2 -RA
09:44 74.3 °F 71.5 °F 30.07 in SW 3.5 mph 1.8 mph 91% 0.00 in 503.70 W/m2 -RA
09:49 73.8 °F 71.6 °F 30.08 in SSW 2.3 mph 1.3 mph 93% 0.00 in 812.70 W/m2 -RA
09:54 73.6 °F 71.4 °F 30.08 in SE 2.3 mph 0.4 mph 93% 0.00 in 450.20 W/m2 -RA
09:59 73.4 °F 71.3 °F 30.09 in SW 3.5 mph 0.7 mph 93% 0.00 in 362.30 W/m2 -RA
10:04 73.0 °F 70.9 °F 30.09 in Calm   0.4 mph 93% 0.00 in 361.30 W/m2 BKN
10:09 73.0 °F 71.5 °F 30.09 in West 2.3 mph 0.9 mph 95% 0.00 in 369.30 W/m2 BKN
10:14 73.0 °F 70.9 °F 30.08 in NW 3.5 mph 2.0 mph 93% 0.00 in 369.30 W/m2 BKN
10:19 73.4 °F 71.3 °F 30.08 in Calm   0.2 mph 93% 0.00 in 399.70 W/m2 BKN
10:24 73.0 °F 70.9 °F 30.08 in WSW 1.2 mph 1.1 mph 93% 0.00 in 494.60 W/m2 BKN
10:29 73.0 °F 70.9 °F 30.07 in SW 3.5 mph 1.6 mph 93% 0.00 in 395.60 W/m2 BKN
10:34 73.0 °F 70.9 °F 30.07 in Calm   0.2 mph 93% 0.00 in 394.60 W/m2 SCT
10:39 73.4 °F 71.9 °F 30.08 in WSW 2.0 mph 1.1 mph 95% 0.00 in 396.60 W/m2 SCT
10:44 73.6 °F 71.4 °F 30.08 in SE 2.3 mph 0.9 mph 93% 0.00 in 408.70 W/m2 SCT
10:49 73.8 °F 71.6 °F 30.08 in NNE 2.0 mph 1.6 mph 93% 0.00 in 479.40 W/m2 SCT
10:54 73.9 °F 71.8 °F 30.08 in SSW 3.5 mph 0.7 mph 93% 0.00 in 761.20 W/m2 SCT
10:59 74.3 °F 72.1 °F 30.08 in SSE 1.2 mph 1.6 mph 93% 0.00 in 761.20 W/m2 SCT
11:04 74.3 °F 71.5 °F 30.09 in SW 1.2 mph 1.3 mph 91% 0.00 in 791.50 W/m2 -RA
11:09 74.3 °F 71.5 °F 30.09 in SSW 3.5 mph 2.5 mph 91% 0.00 in 774.40 W/m2 -RA
11:14 75.0 °F 71.9 °F 30.10 in SW 5.8 mph 2.9 mph 90% 0.00 in 774.40 W/m2 -RA
11:19 74.5 °F 71.4 °F 30.10 in North 3.5 mph 2.5 mph 90% 0.00 in 827.90 W/m2 -RA
11:24 73.9 °F 71.1 °F 30.10 in WNW 4.6 mph 2.5 mph 91% 0.00 in 553.20 W/m2 -RA
11:29 73.9 °F 71.1 °F 30.10 in West 2.3 mph 1.6 mph 91% 0.00 in 421.90 W/m2 -RA
11:34 73.9 °F 71.1 °F 30.09 in West 3.5 mph 2.5 mph 91% 0.00 in 382.50 W/m2 -RA
11:39 73.0 °F 70.9 °F 30.10 in SW 2.3 mph 2.7 mph 93% 0.00 in 379.40 W/m2 -RA
11:44 73.0 °F 71.8 °F 30.09 in SW 2.3 mph 1.3 mph 96% 0.00 in 379.40 W/m2 -RA
11:49 72.9 °F 71.7 °F 30.09 in Calm     96% 0.00 in 389.60 W/m2 SCT
11:54 72.9 °F 72.3 °F 30.10 in SSE 2.0 mph 0.4 mph 98% 0.00 in 370.40 W/m2 SCT
11:59 73.0 °F 72.4 °F 30.09 in SW 2.3 mph 1.1 mph 98% 0.00 in 380.50 W/m2 SCT
12:04 73.4 °F 72.2 °F 30.08 in ESE 0.9 mph 0.2 mph 96% 0.00 in 456.20 W/m2 FEW
12:09 73.9 °F 72.4 °F 30.08 in SW 1.2 mph 0.4 mph 95% 0.00 in 466.30 W/m2 FEW
12:14 74.5 °F 72.3 °F 30.09 in SW 2.3 mph 1.6 mph 93% 0.00 in 774.40 W/m2 FEW
12:19 74.8 °F 72.7 °F 30.08 in West 3.5 mph 1.1 mph 93% 0.00 in 774.40 W/m2 FEW
12:24 75.4 °F 73.2 °F 30.09 in West 3.5 mph 1.3 mph 93% 0.00 in 840.00 W/m2 FEW
12:29 75.0 °F 72.2 °F 30.09 in WSW 4.0 mph 2.5 mph 91% 0.00 in 841.00 W/m2 FEW
12:34 75.6 °F 72.7 °F 30.09 in West 3.5 mph 2.2 mph 91% 0.00 in 800.60 W/m2 FEW
12:39 75.9 °F 73.1 °F 30.09 in West 5.8 mph 3.4 mph 91% 0.00 in 835.00 W/m2 FEW
12:44 76.5 °F 72.6 °F 30.09 in SW 4.0 mph 2.0 mph 88% 0.00 in 840.00 W/m2 FEW
12:49 77.2 °F 72.7 °F 30.09 in North 4.6 mph 2.9 mph 86% 0.00 in 862.20 W/m2 FEW
12:54 77.5 °F 72.7 °F 30.09 in NNE 4.6 mph 3.6 mph 85% 0.00 in 876.40 W/m2 FEW
12:59 77.4 °F 72.8 °F 30.09 in West 5.8 mph 3.8 mph 86% 0.00 in 860.20 W/m2 FEW
13:04 76.8 °F 72.3 °F 30.09 in WSW 3.5 mph 3.8 mph 86% 0.00 in 803.70 W/m2 BKN
13:09 77.2 °F 72.7 °F 30.09 in North 3.5 mph 2.9 mph 86% 0.00 in 809.70 W/m2 BKN
13:14 77.5 °F 72.7 °F 30.08 in NE 2.3 mph 2.5 mph 85% 0.00 in 846.10 W/m2 BKN
13:19 78.4 °F 72.8 °F 30.09 in WNW 3.5 mph 1.6 mph 83% 0.00 in 873.30 W/m2 BKN
13:24 79.0 °F 73.4 °F 30.08 in NE 3.5 mph 2.9 mph 83% 0.00 in 860.20 W/m2 BKN
13:29 79.3 °F 73.7 °F 30.08 in SSW 2.3 mph 1.8 mph 83% 0.00 in 873.30 W/m2 BKN
13:34 79.0 °F 72.6 °F 30.08 in ESE 4.6 mph 2.5 mph 81% 0.00 in 878.40 W/m2 BKN
13:39 79.0 °F 72.6 °F 30.06 in WNW 1.2 mph 2.5 mph 81% 0.00 in 842.00 W/m2 BKN
13:44 79.5 °F 73.2 °F 30.06 in NW 2.3 mph 1.3 mph 81% 0.00 in 881.40 W/m2 BKN
13:49 79.9 °F 73.5 °F 30.08 in WNW 6.0 mph 3.4 mph 81% 0.00 in 866.30 W/m2 BKN
13:54 80.2 °F 72.8 °F 30.06 in South 2.3 mph 1.8 mph 78% 0.00 in 864.30 W/m2 BKN
13:59 80.1 °F 73.3 °F 30.06 in SW 3.5 mph 2.2 mph 80% 0.00 in 880.40 W/m2 BKN
14:04 80.1 °F 73.3 °F 30.08 in SW 3.5 mph 2.2 mph 80% 0.00 in 880.40 W/m2 SCT
14:09 81.9 °F 73.2 °F 30.06 in SW 4.9 mph 2.7 mph 75% 0.00 in 867.30 W/m2 SCT
14:14 81.9 °F 72.8 °F 30.06 in WNW 2.3 mph 2.5 mph 74% 0.00 in 867.30 W/m2 SCT
14:19 82.0 °F 73.3 °F 30.06 in West 2.3 mph 1.3 mph 75% 0.00 in 882.40 W/m2 SCT
14:24 83.1 °F 74.4 °F 30.06 in East 2.3 mph 1.1 mph 75% 0.00 in 889.50 W/m2 SCT
14:29 83.1 °F 72.7 °F 30.06 in WNW 3.5 mph 2.2 mph 71% 0.00 in 895.60 W/m2 SCT
14:34 83.5 °F 73.9 °F 30.06 in West 2.3 mph 1.8 mph 73% 0.00 in 882.40 W/m2 SCT
14:39 81.9 °F 72.8 °F 30.05 in SW 2.3 mph 2.0 mph 74% 0.00 in 887.50 W/m2 SCT
14:44 82.0 °F 72.5 °F 30.06 in NNW 4.6 mph 3.6 mph 73% 0.00 in 887.50 W/m2 SCT
14:49 81.3 °F 72.6 °F 30.06 in WNW 3.5 mph 2.2 mph 75% 0.00 in 845.10 W/m2 SCT
14:54 82.0 °F 73.3 °F 30.06 in ESE 1.2 mph 0.7 mph 75% 0.00 in 845.10 W/m2 SCT
14:59 82.8 °F 72.4 °F 30.05 in West 4.0 mph 1.6 mph 71% 0.00 in 873.30 W/m2 SCT
15:04 82.8 °F 72.4 °F 30.05 in West 3.5 mph 2.2 mph 71% 0.00 in 868.30 W/m2 FEW
15:09 83.5 °F 72.7 °F 30.05 in Calm   0.9 mph 70% 0.00 in 883.40 W/m2 FEW
15:14 82.6 °F 73.0 °F 30.05 in North 2.3 mph 0.4 mph 73% 0.00 in 883.40 W/m2 FEW
15:19 82.8 °F 72.4 °F 30.05 in WSW 1.2 mph 0.2 mph 71% 0.00 in 883.40 W/m2 FEW
15:24 81.9 °F 72.8 °F 30.05 in NW 3.5 mph 2.0 mph 74% 0.00 in 853.10 W/m2 FEW
15:29 81.0 °F 71.5 °F 30.05 in ESE 1.2 mph 0.4 mph 73% 0.00 in 853.10 W/m2 FEW
15:34 81.0 °F 72.7 °F 30.05 in Calm     76% 0.00 in 800.60 W/m2 FEW
15:39 81.0 °F 72.7 °F 30.06 in SW 3.5 mph 0.9 mph 76% 0.00 in 792.50 W/m2 FEW
15:44 81.3 °F 72.6 °F 30.07 in SW 2.3 mph 0.7 mph 75% 0.00 in 800.60 W/m2 FEW
15:49 80.4 °F 72.9 °F 30.07 in Calm     78% 0.00 in 793.60 W/m2 FEW
15:54 80.8 °F 73.3 °F 30.07 in North 2.3 mph 1.1 mph 78% 0.00 in 769.30 W/m2 FEW
15:59 80.4 °F 72.2 °F 30.06 in West 2.3 mph 0.9 mph 76% 0.00 in 623.90 W/m2 FEW
16:04 80.8 °F 72.5 °F 30.06 in West 3.5 mph 1.8 mph 76% 0.00 in 721.80 W/m2 FEW
16:09 80.8 °F 72.5 °F 30.06 in West 3.5 mph 1.3 mph 76% 0.00 in 808.70 W/m2 FEW
16:14 80.1 °F 72.6 °F 30.05 in West 1.2 mph 1.3 mph 78% 0.00 in 784.50 W/m2 FEW
16:19 79.3 °F 72.3 °F 30.05 in NNW 3.5 mph 1.3 mph 79% 0.00 in 570.30 W/m2 FEW
16:24 79.2 °F 72.8 °F 30.06 in NW 2.0 mph 0.7 mph 81% 0.00 in 420.90 W/m2 FEW
16:29 77.5 °F 73.7 °F 30.05 in Calm     88% 0.00 in 380.50 W/m2 FEW
16:34 76.5 °F 74.3 °F 30.06 in Calm     93% 0.00 in 406.70 W/m2 FEW
16:39 77.5 °F 74.7 °F 30.05 in Calm     91% 0.00 in 452.20 W/m2 FEW
16:44 78.4 °F 74.6 °F 30.06 in West 2.3 mph 0.4 mph 88% 0.00 in 798.60 W/m2 FEW
16:49 78.4 °F 74.6 °F 30.06 in West 1.2 mph 0.4 mph 88% 0.00 in 739.00 W/m2 FEW
16:54 78.4 °F 73.9 °F 30.07 in WSW 3.5 mph 1.3 mph 86% 0.00 in 623.90 W/m2 FEW
16:59 79.0 °F 73.4 °F 30.07 in WSW 2.9 mph 1.3 mph 83% 0.00 in 707.70 W/m2 FEW
17:04 78.4 °F 73.6 °F 30.07 in West 1.2 mph 2.0 mph 85% 0.00 in 708.70 W/m2 -RA
17:09 78.4 °F 73.6 °F 30.07 in North 2.9 mph 1.1 mph 85% 0.00 in 457.20 W/m2 -RA
17:14 78.3 °F 73.7 °F 30.07 in Calm   0.7 mph 86% 0.00 in 429.90 W/m2 -RA
17:19 78.3 °F 73.7 °F 30.07 in SSW 3.5 mph 0.4 mph 86% 0.00 in 425.90 W/m2 -RA
17:24 78.1 °F 73.2 °F 30.07 in Calm     85% 0.00 in 443.10 W/m2 -RA
17:29 78.4 °F 72.8 °F 30.07 in SW 2.3 mph 1.1 mph 83% 0.00 in 417.80 W/m2 -RA
17:34 77.7 °F 73.2 °F 30.07 in Calm   0.4 mph 86% 0.00 in 410.80 W/m2 -RA
17:38 78.1 °F 73.2 °F 30.07 in West 2.3 mph 0.2 mph 85% 0.00 in 423.90 W/m2 -RA
17:54 77.7 °F 73.2 °F 30.06 in SW 1.2 mph 0.2 mph 86% 0.00 in 384.50 W/m2 -RA
17:59 77.7 °F 72.1 °F 30.06 in SW 3.5 mph 0.4 mph 83% 0.00 in 387.50 W/m2 -RA
18:04 77.7 °F 72.1 °F 30.06 in NW 2.3 mph 1.6 mph 83% 0.00 in 389.60 W/m2 SCT
18:09 77.7 °F 72.1 °F 30.06 in West 1.2 mph 0.9 mph 83% 0.00 in 396.60 W/m2 SCT
18:14 77.7 °F 73.2 °F 30.06 in Calm   0.4 mph 86% 0.00 in 380.50 W/m2 SCT
18:19 77.5 °F 72.7 °F 30.06 in WSW 1.2 mph 0.9 mph 85% 0.00 in 380.50 W/m2 SCT
18:24 76.5 °F 72.6 °F 30.05 in Calm   0.7 mph 88% 0.00 in 385.50 W/m2 SCT
18:29 77.2 °F 73.3 °F 30.05 in Calm     88% 0.00 in 419.80 W/m2 SCT
18:34 77.2 °F 73.3 °F 30.04 in Calm   0.4 mph 88% 0.00 in 641.00 W/m2 SCT
18:39 77.4 °F 72.8 °F 30.04 in Calm     86% 0.00 in 641.00 W/m2 SCT
18:44 77.4 °F 72.8 °F 30.04 in Calm     86% 0.00 in 612.80 W/m2 SCT
18:49 76.8 °F 72.3 °F 30.03 in Calm     86% 0.00 in 408.70 W/m2 SCT
18:54 76.8 °F 72.3 °F 30.02 in Calm     86% 0.00 in 408.70 W/m2 SCT
18:59 76.5 °F 70.9 °F 30.02 in Calm     83% 0.00 in 387.50 W/m2 SCT
19:04 76.5 °F 70.9 °F 30.02 in Calm     83% 0.00 in 408.70 W/m2 FEW
19:09 76.5 °F 70.9 °F 30.02 in Calm     83% 0.00 in 408.70 W/m2 FEW
19:14 76.5 °F 70.9 °F 30.02 in Calm     83% 0.00 in 355.20 W/m2 FEW
19:19 76.5 °F 70.9 °F 30.02 in Calm     83% 0.00 in 355.20 W/m2 FEW
19:24 77.2 °F 70.9 °F 30.02 in Calm     81% 0.00 in 338.00 W/m2 FEW
19:29 77.2 °F 70.9 °F 30.02 in Calm     81% 0.00 in 342.10 W/m2 FEW
19:34 77.2 °F 70.9 °F 30.03 in SW 2.3 mph 1.1 mph 81% 0.00 in 342.10 W/m2 FEW
19:39 77.2 °F 70.9 °F 30.03 in Calm   1.1 mph 81% 0.00 in 338.00 W/m2 FEW
19:44 76.3 °F 70.7 °F 30.03 in SW 2.3 mph 1.6 mph 83% 0.00 in 378.40 W/m2 FEW
19:49 76.5 °F 70.9 °F 30.03 in SW 1.2 mph 0.4 mph 83% 0.00 in 612.80 W/m2 FEW
19:54 76.5 °F 70.2 °F 30.04 in West 2.3 mph 1.6 mph 81% 0.00 in 354.20 W/m2 FEW
19:59 76.5 °F 70.2 °F 30.02 in Calm   1.1 mph 81% 0.00 in 355.20 W/m2 FEW
20:04 76.3 °F 70.7 °F 30.02 in Calm     83% 0.00 in 347.10 W/m2 CLR
20:09 75.9 °F 70.4 °F 30.04 in Calm     83% 0.00 in 337.00 W/m2 CLR
20:14 75.9 °F 70.4 °F 30.04 in Calm     83% 0.00 in 337.00 W/m2 CLR
20:19 75.9 °F 69.7 °F 30.04 in Calm     81% 0.00 in 316.80 W/m2 CLR
20:24 75.9 °F 69.7 °F 30.04 in Calm     81% 0.00 in 316.80 W/m2 CLR
20:29 75.0 °F 70.2 °F 30.02 in Calm     85% 0.00 in 299.70 W/m2 CLR
20:34 75.0 °F 70.5 °F 30.04 in Calm     86% 0.00 in 316.80 W/m2 CLR
20:39 75.0 °F 70.5 °F 30.02 in Calm     86% 0.00 in 316.80 W/m2 CLR
20:44 74.8 °F 70.4 °F 30.04 in Calm     86% 0.00 in 355.20 W/m2 CLR
20:49 74.8 °F 71.0 °F 30.04 in Calm     88% 0.00 in 311.80 W/m2 CLR
20:54 74.3 °F 71.2 °F 30.04 in Calm     90% 0.00 in 304.70 W/m2 CLR
20:59 73.9 °F 71.1 °F 30.04 in Calm     91% 0.00 in 296.60 W/m2 CLR
21:04 73.8 °F 71.0 °F 30.04 in Calm     91% 0.00 in 296.60 W/m2 CLR
21:09 73.8 °F 71.0 °F 30.04 in Calm     91% 0.00 in 284.50 W/m2 CLR
21:14 73.0 °F 70.3 °F 30.04 in Calm     91% 0.00 in 279.50 W/m2 CLR
21:19 73.0 °F 70.3 °F 30.04 in Calm     91% 0.00 in 269.40 W/m2 CLR
21:24 72.3 °F 70.8 °F 30.04 in Calm     95% 0.00 in 263.30 W/m2 CLR
21:29 72.3 °F 70.8 °F 30.04 in Calm     95% 0.00 in 258.30 W/m2 CLR
21:34 72.1 °F 70.0 °F 30.04 in Calm     93% 0.00 in 236.00 W/m2 CLR
21:39 72.0 °F 69.8 °F 30.04 in Calm     93% 0.00 in 223.90 W/m2 CLR
21:44 71.4 °F 70.2 °F 30.04 in Calm     96% 0.00 in 212.80 W/m2 CLR
21:49 71.1 °F 69.9 °F 30.04 in Calm     96% 0.00 in 202.70 W/m2 CLR
21:54 71.1 °F 69.9 °F 30.04 in Calm     96% 0.00 in 202.70 W/m2 CLR
21:59 70.9 °F 69.7 °F 30.04 in Calm     96% 0.00 in 141.10 W/m2 CLR
22:04 70.5 °F 69.3 °F 30.04 in Calm     96% 0.00 in 0.00 W/m2 CLR
22:09 70.5 °F 69.9 °F 30.04 in Calm     98% 0.00 in 0.00 W/m2 CLR
22:14 70.3 °F 69.1 °F 30.06 in Calm     96% 0.00 in 0.00 W/m2 CLR
22:19 70.2 °F 69.0 °F 30.06 in Calm     96% 0.00 in 0.00 W/m2 CLR
22:24 70.0 °F 68.8 °F 30.06 in Calm     96% 0.00 in 0.00 W/m2 CLR
22:29 70.0 °F 68.8 °F 30.06 in Calm     96% 0.00 in 0.00 W/m2 CLR
22:34 69.8 °F 69.2 °F 30.06 in Calm     98% 0.00 in 0.00 W/m2 CLR
22:39 69.8 °F 69.2 °F 30.06 in Calm     98% 0.00 in 0.00 W/m2 CLR
22:44 69.6 °F 69.0 °F 30.07 in Calm     98% 0.00 in 0.00 W/m2 CLR
22:49 69.6 °F 69.0 °F 30.06 in Calm     98% 0.00 in 0.00 W/m2 CLR
22:54 69.4 °F 68.9 °F 30.06 in Calm     98% 0.00 in 0.00 W/m2 CLR
22:59 69.4 °F 68.9 °F 30.06 in Calm     98% 0.00 in 0.00 W/m2 CLR
23:04 69.4 °F 68.9 °F 30.06 in Calm     98% 0.00 in 0.00 W/m2 CLR
23:09 69.4 °F 68.9 °F 30.06 in Calm     98% 0.00 in 0.00 W/m2 CLR
23:14 69.4 °F 68.9 °F 30.06 in Calm     98% 0.00 in 0.00 W/m2 CLR
23:19 69.4 °F 68.9 °F 30.06 in Calm     98% 0.00 in 0.00 W/m2 CLR
23:24 69.3 °F 68.7 °F 30.06 in Calm     98% 0.00 in 0.00 W/m2 CLR
23:29 69.3 °F 68.7 °F 30.05 in Calm     98% 0.00 in 0.00 W/m2 CLR
23:34 69.1 °F 68.5 °F 30.05 in Calm     98% 0.00 in 0.00 W/m2 CLR
23:39 68.9 °F 68.3 °F 30.05 in Calm     98% 0.00 in 0.00 W/m2 CLR
23:44 68.9 °F 68.3 °F 30.05 in Calm     98% 0.00 in 0.00 W/m2 CLR
23:49 68.5 °F 68.0 °F 30.06 in Calm     98% 0.00 in 0.00 W/m2 CLR
23:54 68.4 °F 67.8 °F 30.06 in Calm     98% 0.00 in 0.00 W/m2 CLR
23:59 68.2 °F 67.6 °F 30.06 in Calm     98% 0.00 in 0.00 W/m2 CLR
Juneau County Weather
Compliments of Weather Underground - 5.75 mb